Terminal Aerodrome Forecast
Issued by NWS Atlanta, GA

Home | Current Version | Previous Version | Text Only | Print | Product List | Glossary On
Versions: 1 2 3 4 5 6 7 8 9 10 11 12 13 14 15 16 17 18 19 20 21 22 23 24 25 26 27 28 29 30 31 32 33
000
FTUS42 KFFC 311700
TAFAHN
TAF
KAHN 311723Z 3118/0118 28006KT P6SM SCT120
     FM311900 30008KT P6SM BKN080
     FM010200 29012G20KT P6SM BKN030
     FM011400 30018G30KT P6SM BKN030=

USA.gov is the U.S. government's official web portal to all federal, state and local government web resources and services.